createdAt,value
2018-07-24T00:00:17.985Z,20.66
2018-07-24T00:02:46.182Z,20.64
2018-07-24T00:05:14.341Z,20.61
2018-07-24T00:07:42.559Z,20.60
2018-07-24T00:10:10.784Z,20.55
2018-07-24T00:12:39.058Z,20.50
2018-07-24T00:15:07.260Z,20.66
2018-07-24T00:17:35.814Z,20.60
2018-07-24T00:20:05.966Z,20.50
2018-07-24T00:22:34.399Z,20.42
2018-07-24T00:25:02.971Z,20.36
2018-07-24T00:27:31.066Z,20.34
2018-07-24T00:29:59.274Z,20.30
2018-07-24T00:32:28.148Z,20.26
2018-07-24T00:34:56.377Z,20.24
2018-07-24T00:37:24.744Z,20.23
2018-07-24T00:39:53.553Z,20.23
2018-07-24T00:42:21.724Z,20.20
2018-07-24T00:44:50.013Z,20.12
2018-07-24T00:47:18.528Z,20.08
2018-07-24T00:49:46.794Z,20.10
2018-07-24T00:52:15.036Z,20.17
2018-07-24T00:54:43.217Z,20.14
2018-07-24T00:57:11.720Z,20.10
2018-07-24T00:59:39.918Z,20.07
2018-07-24T01:02:11.064Z,20.06
2018-07-24T01:04:39.579Z,20.13
2018-07-24T01:07:07.752Z,20.28
2018-07-24T01:09:36.669Z,20.20
2018-07-24T01:12:05.268Z,20.13
2018-07-24T01:14:33.797Z,20.04
2018-07-24T01:17:02.090Z,19.97
2018-07-24T01:19:30.524Z,19.92
2018-07-24T01:21:59.439Z,19.88
2018-07-24T01:24:27.844Z,19.85
2018-07-24T01:26:56.720Z,19.85
2018-07-24T01:29:24.917Z,19.79
2018-07-24T01:31:53.135Z,19.74
2018-07-24T01:34:22.833Z,19.74
2018-07-24T01:36:51.264Z,19.70
2018-07-24T01:39:19.745Z,19.69
2018-07-24T01:41:47.918Z,19.65
2018-07-24T01:44:16.397Z,19.61
2018-07-24T01:46:44.595Z,19.64
2018-07-24T01:49:13.105Z,19.66
2018-07-24T01:51:41.569Z,19.62
2018-07-24T01:54:09.879Z,19.59
2018-07-24T01:56:38.084Z,19.64
2018-07-24T01:59:06.281Z,19.59
2018-07-24T02:01:34.746Z,19.55
2018-07-24T02:04:02.940Z,19.51
2018-07-24T02:06:31.188Z,19.49
2018-07-24T02:08:59.728Z,19.53
2018-07-24T02:11:27.900Z,19.48
2018-07-24T02:13:56.134Z,19.45
2018-07-24T02:16:24.433Z,19.40
2018-07-24T02:18:53.456Z,19.47
2018-07-24T02:21:21.700Z,19.50
2018-07-24T02:23:49.881Z,19.43
2018-07-24T02:26:18.425Z,19.38
2018-07-24T02:28:46.634Z,19.34
2018-07-24T02:31:14.881Z,19.31
2018-07-24T02:33:43.034Z,19.29
2018-07-24T02:36:11.244Z,19.22
2018-07-24T02:38:39.701Z,19.15
2018-07-24T02:41:08.220Z,19.10
2018-07-24T02:43:36.392Z,19.00
2018-07-24T02:46:04.858Z,18.98
2018-07-24T02:48:33.423Z,18.89
2018-07-24T02:51:04.005Z,18.85
2018-07-24T02:53:34.068Z,18.86
2018-07-24T02:56:02.253Z,18.77
2018-07-24T02:58:31.140Z,18.71
2018-07-24T03:00:59.651Z,18.73
2018-07-24T03:03:27.865Z,18.71
2018-07-24T03:05:56.060Z,18.73
2018-07-24T03:08:24.545Z,18.74
2018-07-24T03:10:52.794Z,18.75
2018-07-24T03:13:20.966Z,18.70
2018-07-24T03:15:49.116Z,18.72
2018-07-24T03:18:17.945Z,18.72
2018-07-24T03:20:46.474Z,18.71
2018-07-24T03:23:14.727Z,18.74
2018-07-24T03:25:43.219Z,18.69
2018-07-24T03:28:12.497Z,18.71
2018-07-24T03:30:40.712Z,18.68
2018-07-24T03:33:08.969Z,18.62
2018-07-24T03:35:37.274Z,18.67
2018-07-24T03:38:05.503Z,18.67
2018-07-24T03:40:34.211Z,18.67
2018-07-24T03:43:02.543Z,18.63
2018-07-24T03:45:31.006Z,18.61
2018-07-24T03:47:59.905Z,18.62
2018-07-24T03:50:28.292Z,18.64
2018-07-24T03:52:56.485Z,18.59
2018-07-24T03:55:24.681Z,18.53
2018-07-24T03:57:52.930Z,18.55
2018-07-24T04:00:21.501Z,18.75
2018-07-24T04:02:50.145Z,18.79
2018-07-24T04:05:18.869Z,18.83
2018-07-24T04:07:51.254Z,18.94
2018-07-24T04:10:20.802Z,18.90
2018-07-24T04:12:49.881Z,18.91
2018-07-24T04:15:18.073Z,18.98
2018-07-24T04:17:46.639Z,19.05
2018-07-24T04:20:14.861Z,19.14
2018-07-24T04:22:43.071Z,19.12
2018-07-24T04:25:11.180Z,19.23
2018-07-24T04:27:39.398Z,19.27
2018-07-24T04:30:07.903Z,19.34
2018-07-24T04:32:36.400Z,19.38
2018-07-24T04:35:04.727Z,19.33
2018-07-24T04:37:32.953Z,19.34
2018-07-24T04:40:01.547Z,19.37
2018-07-24T04:42:29.829Z,19.43
2018-07-24T04:44:58.077Z,19.47
2018-07-24T04:47:26.443Z,19.53
2018-07-24T04:49:57.620Z,19.65
2018-07-24T04:52:26.104Z,19.79
2018-07-24T04:54:54.333Z,19.88
2018-07-24T04:57:22.691Z,19.98
2018-07-24T04:59:50.977Z,20.02
2018-07-24T05:02:19.182Z,20.20
2018-07-24T05:04:47.410Z,20.32
2018-07-24T05:07:15.898Z,20.42
2018-07-24T05:09:44.909Z,20.44
2018-07-24T05:12:13.599Z,20.53
2018-07-24T05:14:41.899Z,20.67
2018-07-24T05:17:11.398Z,20.69
2018-07-24T05:19:39.916Z,20.76
2018-07-24T05:22:08.158Z,20.70
2018-07-24T05:24:36.689Z,20.71
2018-07-24T05:27:05.773Z,20.94
2018-07-24T05:29:34.118Z,20.99
2018-07-24T05:32:02.673Z,21.12
2018-07-24T05:34:31.409Z,21.12
2018-07-24T05:36:59.887Z,21.04
2018-07-24T05:39:28.947Z,21.00
2018-07-24T05:41:57.843Z,21.18
2018-07-24T05:44:26.533Z,21.35
2018-07-24T05:46:54.733Z,21.30
2018-07-24T05:49:23.340Z,21.29
2018-07-24T05:51:51.993Z,21.44
2018-07-24T05:54:21.042Z,21.32
2018-07-24T05:56:49.268Z,21.58
2018-07-24T05:59:20.543Z,21.53
2018-07-24T06:01:48.792Z,21.73
2018-07-24T06:04:16.965Z,21.87
2018-07-24T06:06:45.173Z,21.81
2018-07-24T06:09:13.386Z,22.15
2018-07-24T06:11:41.613Z,22.03
2018-07-24T06:14:10.188Z,22.12
2018-07-24T06:16:38.417Z,22.20
2018-07-24T06:19:06.703Z,22.32
2018-07-24T06:21:35.145Z,22.38
2018-07-24T06:24:03.354Z,22.62
2018-07-24T06:26:31.796Z,22.53
2018-07-24T06:28:59.903Z,22.81
2018-07-24T06:31:34.780Z,22.73
2018-07-24T06:34:02.998Z,22.86
2018-07-24T06:36:32.421Z,23.05
2018-07-24T06:39:01.003Z,23.15
2018-07-24T06:41:29.624Z,23.21
2018-07-24T06:43:57.793Z,23.61
2018-07-24T06:46:26.029Z,23.33
2018-07-24T06:48:54.195Z,23.65
2018-07-24T06:51:22.730Z,23.70
2018-07-24T06:53:51.257Z,23.67
2018-07-24T06:56:19.737Z,24.01
2018-07-24T06:58:48.068Z,24.06
2018-07-24T07:01:16.279Z,24.10
2018-07-24T07:03:44.566Z,23.96
2018-07-24T07:06:13.105Z,24.13
2018-07-24T07:08:42.048Z,24.32
2018-07-24T07:11:10.607Z,24.61
2018-07-24T07:13:38.785Z,24.48
2018-07-24T07:16:07.304Z,24.39
2018-07-24T07:18:35.765Z,24.88
2018-07-24T07:21:03.951Z,24.76
2018-07-24T07:23:32.205Z,25.16
2018-07-24T07:26:00.850Z,25.41
2018-07-24T07:28:29.582Z,25.31
2018-07-24T07:30:57.786Z,25.06
2018-07-24T07:33:26.266Z,25.52
2018-07-24T07:35:54.462Z,25.48
2018-07-24T07:38:22.718Z,25.50
2018-07-24T07:40:50.957Z,25.68
2018-07-24T07:43:19.431Z,25.31
2018-07-24T07:45:47.556Z,25.22
2018-07-24T07:48:15.778Z,25.62
2018-07-24T07:50:44.082Z,25.79
2018-07-24T07:53:12.326Z,26.24
2018-07-24T07:55:41.068Z,26.25
2018-07-24T07:58:09.306Z,26.27
2018-07-24T08:00:37.514Z,26.35
2018-07-24T08:03:05.875Z,26.26
2018-07-24T08:05:34.092Z,26.36
2018-07-24T08:08:02.736Z,26.70
2018-07-24T08:10:30.987Z,26.91
2018-07-24T08:12:59.155Z,27.13
2018-07-24T08:15:27.360Z,27.12
2018-07-24T08:17:55.606Z,27.35
2018-07-24T08:20:24.364Z,27.43
2018-07-24T08:22:52.709Z,27.41
2018-07-24T08:25:21.375Z,27.20
2018-07-24T08:27:51.544Z,27.45
2018-07-24T08:30:19.978Z,27.69
2018-07-24T08:32:48.210Z,27.67
2018-07-24T08:35:17.390Z,28.31
2018-07-24T08:37:45.917Z,28.01
2018-07-24T08:40:14.417Z,28.13
2018-07-24T08:42:42.961Z,28.12
2018-07-24T08:45:11.197Z,28.59
2018-07-24T08:47:44.399Z,28.52
2018-07-24T08:50:12.638Z,28.93
2018-07-24T08:52:42.685Z,28.77
2018-07-24T08:55:11.416Z,29.09
2018-07-24T08:57:39.444Z,29.37
2018-07-24T09:00:07.962Z,29.18
2018-07-24T09:02:36.306Z,29.20
2018-07-24T09:05:04.941Z,29.28
2018-07-24T09:07:33.872Z,29.48
2018-07-24T09:10:02.753Z,29.28
2018-07-24T09:12:34.153Z,29.66
2018-07-24T09:15:02.676Z,29.71
2018-07-24T09:17:30.969Z,29.66
2018-07-24T09:19:59.247Z,30.05
2018-07-24T09:22:27.809Z,30.47
2018-07-24T09:24:56.380Z,30.42
2018-07-24T09:27:24.856Z,30.78
2018-07-24T09:29:53.154Z,30.86
2018-07-24T09:32:21.426Z,30.66
2018-07-24T09:34:50.205Z,30.64
2018-07-24T09:37:18.994Z,30.88
2018-07-24T09:39:47.592Z,30.89
2018-07-24T09:42:16.421Z,31.33
2018-07-24T09:44:45.041Z,31.18
2018-07-24T09:47:13.483Z,31.33
2018-07-24T09:49:41.829Z,31.19
2018-07-24T09:52:10.036Z,31.43
2018-07-24T09:54:38.285Z,31.36
2018-07-24T09:57:06.669Z,31.10
2018-07-24T09:59:35.137Z,31.11
2018-07-24T10:02:04.207Z,31.38
2018-07-24T10:04:32.618Z,31.26
2018-07-24T10:07:00.960Z,31.42
2018-07-24T10:09:29.054Z,31.45
2018-07-24T10:11:57.332Z,31.43
2018-07-24T10:14:25.824Z,31.92
2018-07-24T10:16:54.790Z,32.25
2018-07-24T10:19:23.154Z,32.00
2018-07-24T10:21:51.558Z,32.38
2018-07-24T10:24:19.773Z,32.55
2018-07-24T10:26:48.493Z,32.41
2018-07-24T10:29:17.197Z,32.71
2018-07-24T10:31:45.703Z,32.97
2018-07-24T10:34:14.380Z,32.79
2018-07-24T10:36:43.505Z,32.08
2018-07-24T10:39:12.408Z,33.35
2018-07-24T10:41:41.239Z,32.50
2018-07-24T10:44:10.130Z,32.86
2018-07-24T10:46:38.956Z,33.09
2018-07-24T10:49:08.186Z,33.49
2018-07-24T10:51:36.407Z,33.09
2018-07-24T10:54:04.605Z,33.55
2018-07-24T10:56:33.523Z,33.93
2018-07-24T10:59:01.805Z,34.03
2018-07-24T11:01:30.014Z,33.09
2018-07-24T11:03:58.200Z,33.67
2018-07-24T11:06:27.445Z,33.74
2018-07-24T11:08:56.408Z,33.54
2018-07-24T11:11:24.675Z,34.09
2018-07-24T11:13:53.321Z,33.70
2018-07-24T11:16:21.793Z,33.92
2018-07-24T11:18:50.424Z,33.84
2018-07-24T11:21:19.603Z,33.01
2018-07-24T11:23:48.290Z,32.83
2018-07-24T11:26:17.110Z,32.66
2018-07-24T11:28:45.612Z,33.38
2018-07-24T11:31:14.676Z,33.91
2018-07-24T11:33:42.942Z,33.77
2018-07-24T11:36:11.230Z,34.36
2018-07-24T11:38:39.825Z,34.20
2018-07-24T11:41:08.737Z,33.88
2018-07-24T11:43:37.497Z,34.37
2018-07-24T11:46:05.721Z,34.12
2018-07-24T11:48:35.693Z,34.00
2018-07-24T11:51:04.306Z,34.26
2018-07-24T11:53:32.742Z,34.66
2018-07-24T11:56:01.249Z,34.43
2018-07-24T11:58:29.633Z,34.27
2018-07-24T12:00:58.040Z,34.07
2018-07-24T12:03:26.348Z,34.99
2018-07-24T12:05:55.419Z,35.36
2018-07-24T12:08:24.693Z,34.58
2018-07-24T12:10:53.400Z,35.36
2018-07-24T12:13:22.317Z,35.26
2018-07-24T12:15:51.366Z,35.62
2018-07-24T12:18:19.928Z,35.70
2018-07-24T12:20:48.437Z,36.17
2018-07-24T12:23:16.621Z,36.05
2018-07-24T12:25:45.463Z,35.94
2018-07-24T12:28:14.117Z,36.45
2018-07-24T12:30:42.427Z,36.03
2018-07-24T12:33:11.384Z,36.19
2018-07-24T12:35:39.543Z,36.44
2018-07-24T12:38:07.766Z,37.23
2018-07-24T12:40:35.986Z,36.46
2018-07-24T12:43:04.297Z,37.30
2018-07-24T12:45:32.508Z,35.28
2018-07-24T12:48:01.013Z,35.96
2018-07-24T12:50:29.709Z,36.14
2018-07-24T12:52:58.469Z,36.44
2018-07-24T12:55:27.412Z,36.33
2018-07-24T12:57:56.113Z,36.79
2018-07-24T13:00:24.441Z,36.52
2018-07-24T13:02:52.700Z,37.03
2018-07-24T13:05:22.360Z,36.26
2018-07-24T13:07:51.430Z,35.46
2018-07-24T13:10:20.747Z,35.72
2018-07-24T13:12:48.965Z,36.52
2018-07-24T13:15:18.272Z,37.48
2018-07-24T13:17:46.962Z,37.91
2018-07-24T13:20:15.704Z,38.34
2018-07-24T13:22:44.307Z,37.98
2018-07-24T13:25:13.234Z,38.49
2018-07-24T13:27:42.237Z,39.49
2018-07-24T13:30:11.059Z,40.24
2018-07-24T13:32:39.993Z,41.82
2018-07-24T13:35:08.833Z,41.91
2018-07-24T13:37:37.388Z,42.80
2018-07-24T13:40:05.665Z,43.09
2018-07-24T13:42:33.893Z,43.23
2018-07-24T13:45:02.496Z,44.57
2018-07-24T13:47:30.963Z,45.06
2018-07-24T13:49:59.529Z,44.86
2018-07-24T13:52:27.796Z,44.35
2018-07-24T13:54:56.325Z,46.04
2018-07-24T13:57:24.520Z,46.29
2018-07-24T13:59:52.900Z,46.51
2018-07-24T14:02:21.236Z,44.33
2018-07-24T14:04:50.583Z,44.12
2018-07-24T14:07:19.104Z,42.34
2018-07-24T14:09:47.379Z,40.04
2018-07-24T14:12:16.176Z,38.61
2018-07-24T14:14:46.052Z,37.09
2018-07-24T14:17:14.571Z,36.91
2018-07-24T14:19:44.871Z,36.64
2018-07-24T14:22:13.157Z,36.24
2018-07-24T14:24:41.673Z,36.46
2018-07-24T14:27:10.017Z,37.20
2018-07-24T14:29:38.459Z,38.09
2018-07-24T14:32:07.227Z,40.08
2018-07-24T14:34:36.932Z,42.57
2018-07-24T14:37:05.501Z,44.07
2018-07-24T14:39:34.421Z,44.83
2018-07-24T14:42:03.354Z,46.74
2018-07-24T14:44:31.759Z,46.66
2018-07-24T14:47:02.082Z,46.77
2018-07-24T14:49:33.400Z,46.43
2018-07-24T14:52:02.449Z,43.26
2018-07-24T14:54:31.244Z,41.89
2018-07-24T14:56:59.390Z,41.10
2018-07-24T14:59:28.517Z,39.03
2018-07-24T15:01:57.075Z,38.70
2018-07-24T15:04:26.156Z,38.01
2018-07-24T15:06:55.485Z,37.51
2018-07-24T15:09:25.770Z,37.28
2018-07-24T15:11:54.527Z,36.73
2018-07-24T15:14:23.499Z,36.91
2018-07-24T15:16:52.133Z,36.77
2018-07-24T15:19:20.917Z,37.00
2018-07-24T15:21:49.396Z,37.39
2018-07-24T15:24:17.981Z,38.36
2018-07-24T15:26:47.271Z,38.48
2018-07-24T15:29:15.774Z,41.26
2018-07-24T15:31:44.185Z,43.06
2018-07-24T15:34:12.721Z,46.00
2018-07-24T15:36:41.255Z,46.52
2018-07-24T15:39:12.195Z,47.53
2018-07-24T15:41:41.304Z,47.71
2018-07-24T15:44:10.361Z,47.49
2018-07-24T15:46:38.910Z,46.79
2018-07-24T15:49:07.219Z,47.84
2018-07-24T15:51:36.283Z,46.72
2018-07-24T15:54:05.175Z,43.32
2018-07-24T15:56:33.527Z,44.06
2018-07-24T15:59:01.865Z,44.81
2018-07-24T16:01:30.392Z,45.85
2018-07-24T16:03:58.536Z,45.93
2018-07-24T16:06:27.069Z,45.45
2018-07-24T16:08:55.592Z,44.60
2018-07-24T16:11:23.927Z,45.17
2018-07-24T16:13:55.723Z,46.53
2018-07-24T16:16:24.473Z,46.42
2018-07-24T16:18:53.062Z,46.85
2018-07-24T16:21:21.924Z,47.44
2018-07-24T16:23:50.484Z,48.11
2018-07-24T16:26:18.728Z,45.86
2018-07-24T16:28:47.524Z,42.52
2018-07-24T16:31:15.973Z,42.84
2018-07-24T16:33:46.939Z,42.21
2018-07-24T16:36:15.349Z,39.92
2018-07-24T16:38:44.148Z,40.33
2018-07-24T16:41:12.530Z,40.74
2018-07-24T16:43:40.726Z,42.33
2018-07-24T16:46:09.843Z,44.13
2018-07-24T16:48:38.314Z,44.39
2018-07-24T16:51:07.501Z,45.29
2018-07-24T16:53:37.240Z,44.50
2018-07-24T16:56:06.132Z,45.81
2018-07-24T16:58:35.158Z,45.47
2018-07-24T17:01:03.446Z,46.43
2018-07-24T17:03:31.923Z,46.38
2018-07-24T17:06:00.824Z,43.54
2018-07-24T17:08:29.132Z,45.12
2018-07-24T17:10:57.958Z,45.25
2018-07-24T17:13:26.234Z,44.45
2018-07-24T17:15:54.453Z,43.94
2018-07-24T17:18:22.968Z,43.85
2018-07-24T17:20:51.281Z,43.17
2018-07-24T17:23:20.416Z,43.58
2018-07-24T17:25:49.043Z,45.18
2018-07-24T17:28:17.217Z,44.72
2018-07-24T17:30:46.062Z,44.38
2018-07-24T17:33:14.340Z,44.57
2018-07-24T17:35:43.007Z,44.45
2018-07-24T17:38:11.167Z,43.53
2018-07-24T17:40:39.662Z,43.82
2018-07-24T17:43:08.123Z,43.31
2018-07-24T17:45:36.426Z,42.67
2018-07-24T17:48:05.438Z,41.89
2018-07-24T17:50:34.186Z,42.17
2018-07-24T17:53:02.917Z,41.68
2018-07-24T17:55:32.101Z,41.09
2018-07-24T17:58:00.594Z,41.37
2018-07-24T18:00:28.989Z,40.63
2018-07-24T18:02:57.653Z,38.37
2018-07-24T18:05:26.438Z,36.71
2018-07-24T18:07:54.635Z,35.60
2018-07-24T18:10:23.641Z,34.69
2018-07-24T18:12:51.942Z,34.37
2018-07-24T18:15:20.488Z,33.69
2018-07-24T18:17:49.349Z,33.20
2018-07-24T18:20:17.517Z,33.11
2018-07-24T18:22:45.847Z,33.05
2018-07-24T18:25:14.256Z,32.97
2018-07-24T18:27:43.635Z,32.56
2018-07-24T18:30:12.405Z,32.35
2018-07-24T18:32:41.268Z,32.56
2018-07-24T18:35:09.476Z,31.83
2018-07-24T18:37:38.010Z,31.80
2018-07-24T18:40:06.734Z,31.51
2018-07-24T18:42:35.220Z,31.32
2018-07-24T18:45:04.931Z,31.07
2018-07-24T18:47:33.443Z,30.86
2018-07-24T18:50:02.661Z,30.68
2018-07-24T18:52:33.356Z,30.73
2018-07-24T18:55:01.592Z,30.69
2018-07-24T18:57:29.829Z,30.49
2018-07-24T18:59:58.061Z,30.42
2018-07-24T19:02:26.522Z,30.20
2018-07-24T19:04:54.906Z,29.95
2018-07-24T19:07:29.764Z,29.34
2018-07-24T19:09:58.084Z,29.11
2018-07-24T19:12:26.920Z,29.31
2018-07-24T19:20:56.673Z,29.42
2018-07-24T19:23:25.000Z,28.61
2018-07-24T19:25:54.640Z,28.38
2018-07-24T19:28:23.088Z,28.33
2018-07-24T19:30:51.922Z,28.13
2018-07-24T19:33:20.182Z,28.08
2018-07-24T19:35:48.769Z,28.12
2018-07-24T19:38:17.472Z,28.05
2018-07-24T19:40:45.692Z,27.76
2018-07-24T19:43:14.716Z,27.69
2018-07-24T19:45:42.975Z,27.55
2018-07-24T19:48:12.486Z,27.52
2018-07-24T19:50:40.970Z,27.74
2018-07-24T19:53:09.552Z,27.65
2018-07-24T19:55:39.012Z,27.53
2018-07-24T19:58:07.654Z,27.40
2018-07-24T20:00:38.107Z,27.26
2018-07-24T20:03:07.580Z,27.17
2018-07-24T20:05:35.943Z,27.13
2018-07-24T20:08:04.571Z,27.12
2018-07-24T20:10:32.932Z,27.11
2018-07-24T20:13:01.456Z,26.93
2018-07-24T20:15:30.834Z,26.99
2018-07-24T20:17:59.143Z,26.78
2018-07-24T20:20:27.673Z,26.73
2018-07-24T20:22:55.935Z,26.73
2018-07-24T20:25:24.348Z,26.73
2018-07-24T20:27:52.720Z,26.56
2018-07-24T20:30:21.555Z,26.44
2018-07-24T20:32:50.389Z,26.42
2018-07-24T20:35:22.045Z,26.21
2018-07-24T20:37:50.265Z,25.99
2018-07-24T20:40:18.434Z,26.17
2018-07-24T20:42:46.959Z,26.15
2018-07-24T20:45:15.444Z,26.02
2018-07-24T20:47:44.360Z,25.90
2018-07-24T20:50:13.305Z,25.82
2018-07-24T20:52:43.010Z,25.61
2018-07-24T20:55:11.714Z,25.70
2018-07-24T20:57:39.856Z,25.68
2018-07-24T21:00:08.072Z,25.48
2018-07-24T21:02:36.888Z,25.25
2018-07-24T21:05:06.048Z,25.20
2018-07-24T21:07:34.633Z,25.20
2018-07-24T21:10:05.204Z,25.27
2018-07-24T21:12:33.342Z,25.42
2018-07-24T21:15:01.872Z,25.39
2018-07-24T21:17:31.997Z,25.20
2018-07-24T21:20:02.154Z,25.19
2018-07-24T21:22:31.087Z,25.14
2018-07-24T21:25:01.552Z,25.16
2018-07-24T21:27:30.102Z,25.14
2018-07-24T21:29:58.875Z,24.97
2018-07-24T21:32:27.103Z,24.87
2018-07-24T21:34:55.201Z,24.75
2018-07-24T21:37:23.482Z,24.73
2018-07-24T21:39:53.789Z,24.78
2018-07-24T21:42:23.724Z,24.70
2018-07-24T21:44:54.804Z,24.57
2018-07-24T21:47:25.298Z,24.38
2018-07-24T21:49:53.525Z,24.38
2018-07-24T21:52:22.585Z,24.46
2018-07-24T21:54:50.968Z,24.52
2018-07-24T21:57:19.409Z,24.54
2018-07-24T21:59:47.903Z,24.51
2018-07-24T22:02:16.569Z,24.48
2018-07-24T22:04:45.109Z,24.27
2018-07-24T22:07:13.981Z,24.06
2018-07-24T22:09:42.165Z,23.86
2018-07-24T22:12:10.466Z,23.89
2018-07-24T22:14:39.105Z,23.75
2018-07-24T22:17:07.632Z,23.81
2018-07-24T22:19:36.111Z,23.85
2018-07-24T22:22:04.605Z,23.93
2018-07-24T22:24:33.842Z,23.85
2018-07-24T22:27:04.085Z,23.80
2018-07-24T22:29:34.766Z,23.72
2018-07-24T22:32:05.779Z,23.71
2018-07-24T22:34:37.324Z,23.68
2018-07-24T22:37:06.367Z,23.69
2018-07-24T22:39:34.771Z,23.61
2018-07-24T22:42:03.115Z,23.58
2018-07-24T22:44:31.624Z,23.67
2018-07-24T22:47:03.417Z,23.52
2018-07-24T22:49:34.250Z,23.50
2018-07-24T22:52:04.688Z,23.46
2018-07-24T22:54:33.172Z,23.50
2018-07-24T22:57:01.650Z,23.43
2018-07-24T22:59:30.224Z,23.31
2018-07-24T23:02:00.498Z,23.33
2018-07-24T23:04:28.760Z,23.31
2018-07-24T23:06:56.957Z,23.23
2018-07-24T23:09:27.074Z,23.18
2018-07-24T23:11:57.404Z,23.20
2018-07-24T23:14:25.799Z,23.15
2018-07-24T23:16:56.173Z,23.01
2018-07-24T23:19:25.912Z,22.96
2018-07-24T23:21:56.475Z,22.84
2018-07-24T23:24:24.708Z,22.72
2018-07-24T23:26:52.960Z,22.74
2018-07-24T23:29:21.620Z,22.62
2018-07-24T23:31:49.839Z,22.52
2018-07-24T23:34:18.426Z,22.38
2018-07-24T23:36:46.736Z,22.33
2018-07-24T23:39:15.859Z,22.25
2018-07-24T23:41:44.385Z,22.15
2018-07-24T23:44:12.666Z,22.03
2018-07-24T23:46:40.876Z,21.98
2018-07-24T23:49:09.938Z,21.97
2018-07-24T23:51:38.455Z,22.01
2018-07-24T23:54:08.571Z,22.00
2018-07-24T23:56:39.212Z,21.96
2018-07-24T23:59:07.852Z,21.87
